createdAt,value
2018-06-16T00:02:27.996Z,11.93
2018-06-16T00:04:56.290Z,12.33
2018-06-16T00:07:24.554Z,10.80
2018-06-16T00:09:52.808Z,12.43
2018-06-16T00:12:20.883Z,11.43
2018-06-16T00:14:49.152Z,11.47
2018-06-16T00:17:17.438Z,10.73
2018-06-16T00:19:45.718Z,11.07
2018-06-16T00:22:14.039Z,10.57
2018-06-16T00:24:42.335Z,11.50
2018-06-16T00:27:10.867Z,10.70
2018-06-16T00:29:39.150Z,12.67
2018-06-16T00:32:07.441Z,10.37
2018-06-16T00:34:35.709Z,10.27
2018-06-16T00:37:04.001Z,10.03
2018-06-16T00:39:32.275Z,11.17
2018-06-16T00:42:00.557Z,10.70
2018-06-16T00:44:28.849Z,10.63
2018-06-16T00:46:57.117Z,13.23
2018-06-16T00:49:25.424Z,10.57
2018-06-16T00:51:53.688Z,10.17
2018-06-16T00:54:21.969Z,9.80
2018-06-16T00:57:01.673Z,10.30
2018-06-16T00:59:29.940Z,9.60
2018-06-16T01:01:58.214Z,10.40
2018-06-16T01:04:26.500Z,9.13
2018-06-16T01:06:55.056Z,9.40
2018-06-16T01:09:23.368Z,10.00
2018-06-16T01:11:51.639Z,9.80
2018-06-16T01:14:19.913Z,9.27
2018-06-16T01:16:48.210Z,9.63
2018-06-16T01:19:16.864Z,9.17
2018-06-16T01:21:45.203Z,9.33
2018-06-16T01:24:13.484Z,10.27
2018-06-16T01:26:42.026Z,10.03
2018-06-16T01:29:10.292Z,9.67
2018-06-16T01:31:38.590Z,9.30
2018-06-16T01:34:06.853Z,9.67
2018-06-16T01:36:35.236Z,9.10
2018-06-16T01:39:04.034Z,9.33
2018-06-16T01:41:32.303Z,9.37
2018-06-16T01:44:00.318Z,9.00
2018-06-16T01:46:28.593Z,9.20
2018-06-16T01:48:56.972Z,9.73
2018-06-16T01:51:25.330Z,8.43
2018-06-16T01:53:53.595Z,8.70
2018-06-16T01:56:21.846Z,8.67
2018-06-16T01:58:49.874Z,8.37
2018-06-16T02:01:18.213Z,9.20
2018-06-16T02:03:46.460Z,8.23
2018-06-16T02:06:14.753Z,8.40
2018-06-16T02:08:43.008Z,8.80
2018-06-16T02:11:11.300Z,8.27
2018-06-16T02:13:39.597Z,9.40
2018-06-16T02:16:07.865Z,8.10
2018-06-16T02:18:36.128Z,8.27
2018-06-16T02:21:04.405Z,8.70
2018-06-16T02:23:32.713Z,8.30
2018-06-16T02:26:00.991Z,8.97
2018-06-16T02:28:29.273Z,8.47
2018-06-16T02:30:57.546Z,8.57
2018-06-16T02:33:25.815Z,8.43
2018-06-16T02:35:54.434Z,7.80
2018-06-16T02:38:22.781Z,8.43
2018-06-16T02:40:51.042Z,8.20
2018-06-16T02:43:19.292Z,8.23
2018-06-16T02:45:47.550Z,8.53
2018-06-16T02:48:15.853Z,7.70
2018-06-16T02:50:44.181Z,7.90
2018-06-16T02:53:12.443Z,8.17
2018-06-16T02:55:40.751Z,8.23
2018-06-16T02:58:09.020Z,8.60
2018-06-16T03:00:37.297Z,8.10
2018-06-16T03:03:05.564Z,7.40
2018-06-16T03:05:33.575Z,8.27
2018-06-16T03:08:01.858Z,7.97
2018-06-16T03:10:30.135Z,7.43
2018-06-16T03:12:58.414Z,7.90
2018-06-16T03:15:26.694Z,7.47
2018-06-16T03:17:54.954Z,7.70
2018-06-16T03:20:23.221Z,7.97
2018-06-16T03:22:51.538Z,7.67
2018-06-16T03:25:19.826Z,7.80
2018-06-16T03:27:48.096Z,7.17
2018-06-16T03:30:16.377Z,7.60
2018-06-16T03:32:44.647Z,7.67
2018-06-16T03:35:12.919Z,7.20
2018-06-16T03:37:41.204Z,7.67
2018-06-16T03:40:09.223Z,7.37
2018-06-16T03:42:37.492Z,7.70
2018-06-16T03:45:06.249Z,7.53
2018-06-16T03:47:34.523Z,7.70
2018-06-16T03:50:02.839Z,7.53
2018-06-16T03:52:31.137Z,7.33
2018-06-16T03:54:59.574Z,7.23
2018-06-16T03:57:27.866Z,7.83
2018-06-16T03:59:56.137Z,6.50
2018-06-16T04:02:24.443Z,7.37
2018-06-16T04:04:52.444Z,7.27
2018-06-16T04:07:20.696Z,7.33
2018-06-16T04:09:48.969Z,7.50
2018-06-16T04:12:17.263Z,7.17
2018-06-16T04:14:45.301Z,6.90
2018-06-16T04:17:18.621Z,7.17
2018-06-16T04:19:47.509Z,7.17
2018-06-16T04:22:15.842Z,7.07
2018-06-16T04:24:44.170Z,7.00
2018-06-16T04:27:12.463Z,6.80
2018-06-16T04:29:40.935Z,7.00
2018-06-16T04:32:09.278Z,6.83
2018-06-16T04:34:37.555Z,7.20
2018-06-16T04:37:06.491Z,7.03
2018-06-16T04:39:35.715Z,7.20
2018-06-16T04:42:04.517Z,6.33
2018-06-16T04:44:32.789Z,6.50
2018-06-16T04:47:01.065Z,6.63
2018-06-16T04:49:29.567Z,7.30
2018-06-16T04:51:57.859Z,6.70
2018-06-16T04:54:25.937Z,6.00
2018-06-16T04:56:54.253Z,6.97
2018-06-16T04:59:22.489Z,6.27
2018-06-16T05:01:50.754Z,6.53
2018-06-16T05:04:19.033Z,6.77
2018-06-16T05:06:47.303Z,6.40
2018-06-16T05:09:15.605Z,6.57
2018-06-16T05:11:43.885Z,5.80
2018-06-16T05:14:12.169Z,6.37
2018-06-16T05:16:40.451Z,6.20
2018-06-16T05:19:08.739Z,6.53
2018-06-16T05:21:37.037Z,6.30
2018-06-16T05:24:05.345Z,6.70
2018-06-16T05:26:33.615Z,6.87
2018-06-16T05:29:01.925Z,6.30
2018-06-16T05:31:30.191Z,6.10
2018-06-16T05:33:58.507Z,7.07
2018-06-16T05:36:26.801Z,6.37
2018-06-16T05:38:55.083Z,6.50
2018-06-16T05:41:23.373Z,6.43
2018-06-16T05:43:51.643Z,6.10
2018-06-16T05:46:19.673Z,6.23
2018-06-16T05:48:47.971Z,13.63
2018-06-16T05:51:16.251Z,14.17
2018-06-16T05:53:44.585Z,11.83
2018-06-16T05:56:14.901Z,7.50
2018-06-16T05:58:43.187Z,8.97
2018-06-16T06:01:11.480Z,7.93
2018-06-16T06:03:39.773Z,13.10
2018-06-16T06:06:08.076Z,15.97
2018-06-16T06:08:36.345Z,15.37
2018-06-16T06:11:04.734Z,13.13
2018-06-16T06:13:32.995Z,8.23
2018-06-16T06:16:01.275Z,5.93
2018-06-16T06:18:29.561Z,7.80
2018-06-16T06:20:57.845Z,7.97
2018-06-16T06:23:26.147Z,16.70
2018-06-16T06:25:54.457Z,9.53
2018-06-16T06:28:22.711Z,6.20
2018-06-16T06:30:51.025Z,7.07
2018-06-16T06:33:19.343Z,8.20
2018-06-16T06:35:47.633Z,6.30
2018-06-16T06:38:16.017Z,7.77
2018-06-16T06:40:44.311Z,7.13
2018-06-16T06:43:12.591Z,6.20
2018-06-16T06:45:40.887Z,6.37
2018-06-16T06:48:09.181Z,6.47
2018-06-16T06:50:37.448Z,7.40
2018-06-16T06:53:05.728Z,10.07
2018-06-16T06:55:34.018Z,17.50
2018-06-16T06:58:02.086Z,10.57
2018-06-16T07:00:30.113Z,14.63
2018-06-16T07:02:58.388Z,6.50
2018-06-16T07:05:26.657Z,6.53
2018-06-16T07:07:54.952Z,6.93
2018-06-16T07:10:23.236Z,10.63
2018-06-16T07:12:51.532Z,7.30
2018-06-16T07:15:19.808Z,25.27
2018-06-16T07:17:48.071Z,7.43
2018-06-16T07:20:16.404Z,8.47
2018-06-16T07:22:44.668Z,9.23
2018-06-16T07:25:12.962Z,8.93
2018-06-16T07:27:41.252Z,5.90
2018-06-16T07:30:09.740Z,8.67
2018-06-16T07:32:38.027Z,6.53
2018-06-16T07:35:06.300Z,9.77
2018-06-16T07:37:34.663Z,5.90
2018-06-16T07:40:02.927Z,5.83
2018-06-16T07:42:31.204Z,5.70
2018-06-16T07:44:59.456Z,9.73
2018-06-16T07:47:27.532Z,8.97
2018-06-16T07:49:56.046Z,11.60
2018-06-16T07:52:24.318Z,7.03
2018-06-16T07:54:52.593Z,7.03
2018-06-16T07:57:20.615Z,12.37
2018-06-16T07:59:48.920Z,13.73
2018-06-16T08:02:17.237Z,14.60
2018-06-16T08:04:45.300Z,11.60
2018-06-16T08:07:13.692Z,7.03
2018-06-16T08:09:41.960Z,7.23
2018-06-16T08:12:10.259Z,19.43
2018-06-16T08:14:38.276Z,21.90
2018-06-16T08:17:06.568Z,6.40
2018-06-16T08:19:34.846Z,9.57
2018-06-16T08:22:03.112Z,8.37
2018-06-16T08:24:31.398Z,6.10
2018-06-16T08:26:59.682Z,6.20
2018-06-16T08:29:28.000Z,5.60
2018-06-16T08:31:56.333Z,5.60
2018-06-16T08:34:24.627Z,6.47
2018-06-16T08:36:52.916Z,6.03
2018-06-16T08:39:21.192Z,5.73
2018-06-16T08:41:49.452Z,5.27
2018-06-16T08:44:17.720Z,7.30
2018-06-16T08:46:45.728Z,5.07
2018-06-16T08:49:13.996Z,6.23
2018-06-16T08:51:42.309Z,6.33
2018-06-16T08:54:10.597Z,5.70
2018-06-16T08:56:38.943Z,6.37
2018-06-16T08:59:07.245Z,6.43
2018-06-16T09:01:35.527Z,5.53
2018-06-16T09:04:03.864Z,7.13
2018-06-16T09:06:32.150Z,12.90
2018-06-16T09:09:00.605Z,5.53
2018-06-16T09:11:28.907Z,5.77
2018-06-16T09:13:57.184Z,6.43
2018-06-16T09:16:25.487Z,5.43
2018-06-16T09:18:53.504Z,5.97
2018-06-16T09:21:21.811Z,5.87
2018-06-16T09:23:50.161Z,6.00
2018-06-16T09:26:18.462Z,33.57
2018-06-16T09:28:46.886Z,107.47
2018-06-16T09:31:15.168Z,308.30
2018-06-16T09:33:43.642Z,131.03
2018-06-16T09:36:11.938Z,111.27
2018-06-16T09:38:40.276Z,109.40
2018-06-16T09:41:08.605Z,60.07
2018-06-16T09:43:36.894Z,44.40
2018-06-16T09:46:05.209Z,39.83
2018-06-16T09:48:33.491Z,48.97
2018-06-16T09:51:01.809Z,39.50
2018-06-16T09:53:29.840Z,35.80
2018-06-16T09:55:58.178Z,24.63
2018-06-16T09:58:26.512Z,26.03
2018-06-16T10:00:54.815Z,15.20
2018-06-16T10:03:23.138Z,26.63
2018-06-16T10:05:51.442Z,31.13
2018-06-16T10:08:19.757Z,40.97
2018-06-16T10:10:48.047Z,84.20
2018-06-16T10:13:16.356Z,20.77
2018-06-16T10:15:44.655Z,93.47
2018-06-16T10:18:12.965Z,69.67
2018-06-16T10:20:41.261Z,54.07
2018-06-16T10:23:09.549Z,30.57
2018-06-16T10:25:37.829Z,15.27
2018-06-16T10:28:06.129Z,39.60
2018-06-16T10:30:34.455Z,19.87
2018-06-16T10:33:02.777Z,21.13
2018-06-16T10:35:31.064Z,24.90
2018-06-16T10:37:59.387Z,17.83
2018-06-16T10:40:27.638Z,13.83
2018-06-16T10:42:55.965Z,6.47
2018-06-16T10:45:24.261Z,13.30
2018-06-16T10:47:52.690Z,13.70
2018-06-16T10:50:21.000Z,6.50
2018-06-16T10:52:49.311Z,9.23
2018-06-16T10:55:17.661Z,5.63
2018-06-16T10:57:45.926Z,5.73
2018-06-16T11:00:14.209Z,7.60
2018-06-16T11:02:42.505Z,4.20
2018-06-16T11:05:10.783Z,4.53
2018-06-16T11:07:39.137Z,6.63
2018-06-16T11:10:07.673Z,8.20
2018-06-16T11:12:35.986Z,9.27
2018-06-16T11:15:03.999Z,6.37
2018-06-16T11:17:32.272Z,10.33
2018-06-16T11:20:00.645Z,5.63
2018-06-16T11:22:28.941Z,7.40
2018-06-16T11:24:57.221Z,8.27
2018-06-16T11:27:25.502Z,4.97
2018-06-16T11:29:53.913Z,9.53
2018-06-16T11:32:22.219Z,6.20
2018-06-16T11:34:50.543Z,4.90
2018-06-16T11:37:18.861Z,4.60
2018-06-16T11:39:47.180Z,4.27
2018-06-16T11:42:15.545Z,4.47
2018-06-16T11:44:43.932Z,5.00
2018-06-16T11:47:12.237Z,11.03
2018-06-16T11:49:40.545Z,4.73
2018-06-16T11:52:08.832Z,11.57
2018-06-16T11:54:37.119Z,4.77
2018-06-16T11:57:05.450Z,4.93
2018-06-16T11:59:33.749Z,5.00
2018-06-16T12:02:01.846Z,4.87
2018-06-16T12:04:30.157Z,9.23
2018-06-16T12:06:58.447Z,5.47
2018-06-16T12:09:26.757Z,10.10
2018-06-16T12:11:55.072Z,6.77
2018-06-16T12:14:23.415Z,6.83
2018-06-16T12:16:51.705Z,4.73
2018-06-16T12:19:20.033Z,3.70
2018-06-16T12:21:48.325Z,3.60
2018-06-16T12:24:16.599Z,5.80
2018-06-16T12:26:44.899Z,8.90
2018-06-16T12:29:13.180Z,10.93
2018-06-16T12:31:41.476Z,22.03
2018-06-16T12:34:09.786Z,12.40
2018-06-16T12:36:38.072Z,12.10
2018-06-16T12:39:08.139Z,6.80
2018-06-16T12:41:36.428Z,6.63
2018-06-16T12:44:04.799Z,5.23
2018-06-16T12:46:33.097Z,6.17
2018-06-16T12:49:01.413Z,4.37
2018-06-16T12:51:29.691Z,4.60
2018-06-16T12:53:58.079Z,2.97
2018-06-16T12:56:26.821Z,4.13
2018-06-16T12:58:55.091Z,4.10
2018-06-16T13:01:23.090Z,4.63
2018-06-16T13:03:51.527Z,4.10
2018-06-16T13:06:19.838Z,3.90
2018-06-16T13:08:48.116Z,4.13
2018-06-16T13:11:16.569Z,4.40
2018-06-16T13:13:44.837Z,3.70
2018-06-16T13:16:13.112Z,7.43
2018-06-16T13:18:41.405Z,37.10
2018-06-16T13:21:09.775Z,12.73
2018-06-16T13:23:38.111Z,8.20
2018-06-16T13:26:06.381Z,4.03
2018-06-16T13:28:34.657Z,6.43
2018-06-16T13:31:02.993Z,3.97
2018-06-16T13:33:31.317Z,4.43
2018-06-16T13:35:59.621Z,8.43
2018-06-16T13:38:27.637Z,11.97
2018-06-16T13:40:56.064Z,8.30
2018-06-16T13:43:24.388Z,10.53
2018-06-16T13:45:52.717Z,33.30
2018-06-16T13:48:21.020Z,25.73
2018-06-16T13:50:49.374Z,3.67
2018-06-16T13:53:17.599Z,12.90
2018-06-16T13:55:45.629Z,16.97
2018-06-16T13:58:13.930Z,8.87
2018-06-16T14:00:42.314Z,8.17
2018-06-16T14:03:10.600Z,8.13
2018-06-16T14:05:38.886Z,7.63
2018-06-16T14:08:07.491Z,4.43
2018-06-16T14:10:36.064Z,5.37
2018-06-16T14:13:04.364Z,6.60
2018-06-16T14:15:32.646Z,3.43
2018-06-16T14:18:00.926Z,3.67
2018-06-16T14:20:29.208Z,3.13
2018-06-16T14:22:57.514Z,3.40
2018-06-16T14:25:25.804Z,3.30
2018-06-16T14:27:54.084Z,4.03
2018-06-16T14:30:22.364Z,3.43
2018-06-16T14:32:50.670Z,3.30
2018-06-16T14:35:18.952Z,4.50
2018-06-16T14:37:47.264Z,3.67
2018-06-16T14:40:15.536Z,3.37
2018-06-16T14:42:43.914Z,3.20
2018-06-16T14:45:12.220Z,3.53
2018-06-16T14:47:40.598Z,3.70
2018-06-16T14:50:08.958Z,3.33
2018-06-16T14:52:37.278Z,3.47
2018-06-16T14:55:05.793Z,3.23
2018-06-16T14:57:34.085Z,3.33
2018-06-16T15:00:02.374Z,3.10
2018-06-16T15:02:30.674Z,3.30
2018-06-16T15:04:59.024Z,3.77
2018-06-16T15:07:27.300Z,2.97
2018-06-16T15:09:55.372Z,3.00
2018-06-16T15:12:23.392Z,3.77
2018-06-16T15:14:51.714Z,3.20
2018-06-16T15:17:20.105Z,3.07
2018-06-16T15:19:48.684Z,3.47
2018-06-16T15:22:16.960Z,3.23
2018-06-16T15:24:45.446Z,3.10
2018-06-16T15:27:13.746Z,3.13
2018-06-16T15:29:42.024Z,3.17
2018-06-16T15:32:10.498Z,2.73
2018-06-16T15:34:38.776Z,3.43
2018-06-16T15:37:07.083Z,2.90
2018-06-16T15:39:35.104Z,3.00
2018-06-16T15:42:03.389Z,3.00
2018-06-16T15:44:31.661Z,3.07
2018-06-16T15:46:59.934Z,6.97
2018-06-16T15:49:28.216Z,3.10
2018-06-16T15:51:56.577Z,2.93
2018-06-16T15:54:24.752Z,3.27
2018-06-16T15:56:53.059Z,4.90
2018-06-16T15:59:21.350Z,2.90
2018-06-16T16:01:49.655Z,2.80
2018-06-16T16:04:18.040Z,2.77
2018-06-16T16:06:46.330Z,3.07
2018-06-16T16:09:14.613Z,2.80
2018-06-16T16:11:42.884Z,2.40
2018-06-16T16:14:11.340Z,2.50
2018-06-16T16:16:39.652Z,3.00
2018-06-16T16:19:07.954Z,2.57
2018-06-16T16:21:36.344Z,2.60
2018-06-16T16:24:04.843Z,2.50
2018-06-16T16:26:33.138Z,2.67
2018-06-16T16:29:01.431Z,3.10
2018-06-16T16:31:29.447Z,2.70
2018-06-16T16:33:57.740Z,2.63
2018-06-16T16:36:26.363Z,2.73
2018-06-16T16:38:54.732Z,2.57
2018-06-16T16:41:23.022Z,2.90
2018-06-16T16:43:51.306Z,3.00
2018-06-16T16:46:19.593Z,2.77
2018-06-16T16:48:47.870Z,2.40
2018-06-16T16:51:16.146Z,2.50
2018-06-16T16:53:44.428Z,3.27
2018-06-16T16:56:12.777Z,2.57
2018-06-16T16:58:41.069Z,2.30
2018-06-16T17:01:09.360Z,2.43
2018-06-16T17:03:37.708Z,2.60
2018-06-16T17:06:06.135Z,2.60
2018-06-16T17:08:34.423Z,2.53
2018-06-16T17:11:02.709Z,2.83
2018-06-16T17:13:31.205Z,2.73
2018-06-16T17:15:59.507Z,2.50
2018-06-16T17:18:27.658Z,2.90
2018-06-16T17:20:55.953Z,2.30
2018-06-16T17:23:24.248Z,2.83
2018-06-16T17:25:52.271Z,2.80
2018-06-16T17:28:20.992Z,3.67
2018-06-16T17:30:49.318Z,2.40
2018-06-16T17:33:17.592Z,2.30
2018-06-16T17:35:45.922Z,23.20
2018-06-16T17:38:14.200Z,5.97
2018-06-16T17:40:42.223Z,7.50
2018-06-16T17:43:10.567Z,4.00
2018-06-16T17:45:39.066Z,6.77
2018-06-16T17:48:07.429Z,4.07
2018-06-16T17:50:35.844Z,4.03
2018-06-16T17:53:04.149Z,4.30
2018-06-16T17:55:32.745Z,29.87
2018-06-16T17:58:01.044Z,4.20
2018-06-16T18:00:29.321Z,5.53
2018-06-16T18:02:57.607Z,4.93
2018-06-16T18:05:26.173Z,4.37
2018-06-16T18:07:54.518Z,5.90
2018-06-16T18:10:22.939Z,3.47
2018-06-16T18:12:51.013Z,4.63
2018-06-16T18:15:19.285Z,4.13
2018-06-16T18:17:47.618Z,7.77
2018-06-16T18:20:15.895Z,7.67
2018-06-16T18:22:44.273Z,9.70
2018-06-16T18:25:12.599Z,70.37
2018-06-16T18:27:40.949Z,52.10
2018-06-16T18:30:09.237Z,39.43
2018-06-16T18:32:37.539Z,17.03
2018-06-16T18:35:05.904Z,18.83
2018-06-16T18:37:34.385Z,18.10
2018-06-16T18:40:02.668Z,13.63
2018-06-16T18:42:30.955Z,10.63
2018-06-16T18:44:59.266Z,8.50
2018-06-16T18:47:27.587Z,72.13
2018-06-16T18:49:55.734Z,40.40
2018-06-16T18:52:24.187Z,34.97
2018-06-16T18:54:52.488Z,25.80
2018-06-16T18:57:20.798Z,24.13
2018-06-16T18:59:49.083Z,17.37
2018-06-16T19:02:17.375Z,14.27
2018-06-16T19:04:45.693Z,18.63
2018-06-16T19:07:13.999Z,19.00
2018-06-16T19:09:42.351Z,20.57
2018-06-16T19:12:10.647Z,49.73
2018-06-16T19:14:38.937Z,23.00
2018-06-16T19:17:06.982Z,12.77
2018-06-16T19:19:35.277Z,12.77
2018-06-16T19:22:03.596Z,14.60
2018-06-16T19:24:31.874Z,17.60
2018-06-16T19:27:00.149Z,13.10
2018-06-16T19:29:28.470Z,11.90
2018-06-16T19:31:57.802Z,18.33
2018-06-16T19:34:26.123Z,19.47
2018-06-16T19:36:54.531Z,15.03
2018-06-16T19:39:22.851Z,21.03
2018-06-16T19:41:51.307Z,22.27
2018-06-16T19:44:19.704Z,22.33
2018-06-16T19:46:48.037Z,16.00
2018-06-16T19:49:16.357Z,13.93
2018-06-16T19:51:44.721Z,18.97
2018-06-16T19:54:12.963Z,12.20
2018-06-16T19:56:41.243Z,14.90
2018-06-16T19:59:10.020Z,11.87
2018-06-16T20:01:38.308Z,19.07
2018-06-16T20:04:06.383Z,12.53
2018-06-16T20:06:34.823Z,15.77
2018-06-16T20:09:03.435Z,12.70
2018-06-16T20:11:31.755Z,9.93
2018-06-16T20:14:00.058Z,6.33
2018-06-16T20:16:28.345Z,11.03
2018-06-16T20:18:56.646Z,27.13
2018-06-16T20:21:24.959Z,22.07
2018-06-16T20:23:53.308Z,14.47
2018-06-16T20:26:21.607Z,10.87
2018-06-16T20:28:49.896Z,16.33
2018-06-16T20:31:18.194Z,15.03
2018-06-16T20:33:46.479Z,12.73
2018-06-16T20:36:14.543Z,6.80
2018-06-16T20:38:42.856Z,8.57
2018-06-16T20:41:11.318Z,7.93
2018-06-16T20:43:39.788Z,8.83
2018-06-16T20:46:08.113Z,10.93
2018-06-16T20:48:36.433Z,10.00
2018-06-16T20:51:04.757Z,9.90
2018-06-16T20:53:33.146Z,8.50
2018-06-16T20:56:01.448Z,9.57
2018-06-16T20:58:29.727Z,9.67
2018-06-16T21:00:58.046Z,9.17
2018-06-16T21:03:26.413Z,9.07
2018-06-16T21:05:54.793Z,10.67
2018-06-16T21:08:23.071Z,20.60
2018-06-16T21:10:51.387Z,9.83
2018-06-16T21:13:19.690Z,9.47
2018-06-16T21:15:47.967Z,8.67
2018-06-16T21:18:16.306Z,12.27
2018-06-16T21:20:44.602Z,10.33
2018-06-16T21:23:13.028Z,13.23
2018-06-16T21:25:41.332Z,7.67
2018-06-16T21:28:09.400Z,9.27
2018-06-16T21:30:37.416Z,9.10
2018-06-16T21:33:05.728Z,10.47
2018-06-16T21:35:34.031Z,16.17
2018-06-16T21:38:02.520Z,7.37
2018-06-16T21:40:30.836Z,9.60
2018-06-16T21:42:59.110Z,7.83
2018-06-16T21:45:27.126Z,7.60
2018-06-16T21:47:55.384Z,18.40
2018-06-16T21:50:23.690Z,9.47
2018-06-16T21:52:52.003Z,8.73
2018-06-16T21:55:20.308Z,12.03
2018-06-16T21:57:48.960Z,11.43
2018-06-16T22:00:17.257Z,9.97
2018-06-16T22:02:45.609Z,7.13
2018-06-16T22:05:13.902Z,11.13
2018-06-16T22:07:42.208Z,8.80
2018-06-16T22:10:10.830Z,7.77
2018-06-16T22:12:39.368Z,6.73
2018-06-16T22:15:07.715Z,7.50
2018-06-16T22:17:36.000Z,11.23
2018-06-16T22:20:04.431Z,10.73
2018-06-16T22:22:32.710Z,8.47
2018-06-16T22:25:01.026Z,8.00
2018-06-16T22:27:29.063Z,8.97
2018-06-16T22:29:57.369Z,13.50
2018-06-16T22:32:25.660Z,10.43
2018-06-16T22:34:54.252Z,6.90
2018-06-16T22:37:22.535Z,10.23
2018-06-16T22:39:51.216Z,8.57
2018-06-16T22:42:19.644Z,6.07
2018-06-16T22:44:47.936Z,6.53
2018-06-16T22:47:16.356Z,6.60
2018-06-16T22:49:44.641Z,7.23
2018-06-16T22:52:13.096Z,6.17
2018-06-16T22:54:41.412Z,7.83
2018-06-16T22:57:09.716Z,10.43
2018-06-16T22:59:37.720Z,10.87
2018-06-16T23:02:05.996Z,6.67
2018-06-16T23:04:34.309Z,9.47
2018-06-16T23:07:02.711Z,7.73
2018-06-16T23:09:31.007Z,6.47
2018-06-16T23:11:59.314Z,6.03
2018-06-16T23:14:27.326Z,6.00
2018-06-16T23:16:55.705Z,5.90
2018-06-16T23:19:24.036Z,6.00
2018-06-16T23:21:52.320Z,6.00
2018-06-16T23:24:20.612Z,6.63
2018-06-16T23:26:48.606Z,6.00
2018-06-16T23:29:16.892Z,6.33
2018-06-16T23:31:45.168Z,6.10
2018-06-16T23:34:13.525Z,6.37
2018-06-16T23:36:41.800Z,6.13
2018-06-16T23:39:12.034Z,5.90
2018-06-16T23:41:40.497Z,5.97
2018-06-16T23:44:08.796Z,5.97
2018-06-16T23:46:37.479Z,5.80
2018-06-16T23:49:05.980Z,6.10
2018-06-16T23:51:34.460Z,5.27
2018-06-16T23:54:02.768Z,5.77
2018-06-16T23:56:30.766Z,6.43
2018-06-16T23:58:59.060Z,5.53
